CheckWX is a tool to help pilots better visualize weather data.  It is not intended as a substitute for an official pre-flight weather briefing.

02:55:16 UTC

KSFM METAR
Sanford Seacoast Regional Airport
Sanford, Maine, USA
Current

9 mins ago

KSFM 230246Z AUTO 08004KT 4SM +RA BR FEW005 BKN013 OVC034 17/17 A2987 RMK AO2 PNO $
Observed
Jul-23 @ 02:46 UTC
Wind
  • 080° at 4 KTS
Visibility
4 SM
Flight Rules
MVFR
Conditions
Heavy Rain, Mist
Cloud Levels
  • Few at 500' AGL
  • Broken at 1,300' AGL
  • Overcast at 3,400' AGL
Temperature
17°C / 63°F
Dewpoint
17°C / 63°F
Humidity
100%
Altimeter
29.87" Hg
Pressure
1011.52 hPa
Previous

21 mins ago

KSFM 230234Z AUTO 08004KT 3SM +RA BR SCT008 BKN021 OVC036 18/17 A2987 RMK AO2 PNO $
Observed
Jul-23 @ 02:34 UTC
Wind
  • 080° at 4 KTS
Visibility
3 SM
Flight Rules
MVFR
Conditions
Heavy Rain, Mist
Cloud Levels
  • Scattered at 800' AGL
  • Broken at 2,100' AGL
  • Overcast at 3,600' AGL
Temperature
18°C / 64°F
Dewpoint
17°C / 63°F
Humidity
94%
Altimeter
29.87" Hg
Pressure
1011.52 hPa
Previous

28 mins ago

KSFM 230227Z AUTO 08003KT 2 1/2SM +RA BR FEW005 BKN021 OVC034 18/17 A2988 RMK AO2 PNO $
Observed
Jul-23 @ 02:27 UTC
Wind
  • 080° at 3 KTS
Visibility
2 1/2 SM
Flight Rules
IFR
Conditions
Heavy Rain, Mist
Cloud Levels
  • Few at 500' AGL
  • Broken at 2,100' AGL
  • Overcast at 3,400' AGL
Temperature
18°C / 64°F
Dewpoint
17°C / 63°F
Humidity
94%
Altimeter
29.88" Hg
Pressure
1011.82 hPa